Terminal Aerodrome Forecast
Issued by NWS Omaha/Valley, NE

Home | Current Version | Previous Version | Text Only | Print | Product List | Glossary On
Versions: 1 2 3 4 5 6 7 8 9 10 11 12 13
000
FTUS43 KOAX 240520
TAFLNK
TAF
KLNK 240520Z 2406/2506 20007KT P6SM BKN250
     FM240900 21008KT P6SM FEW250
     FM241600 26010KT P6SM FEW250
     FM241900 30017G26KT P6SM SCT090
     FM242300 34011KT P6SM SCT090=

USA.gov is the U.S. government's official web portal to all federal, state and local government web resources and services.